sensor_id;sensor_type;location;lat;lon;timestamp;P1;durP1;ratioP1;P2;durP2;ratioP2
68888;SDS011;55930;47.412;8.790;2024-01-16T00:01:47;14.03;;;7.93;;
68888;SDS011;55930;47.412;8.790;2024-01-16T00:05:07;15.20;;;8.17;;
68888;SDS011;55930;47.412;8.790;2024-01-16T00:08:29;17.58;;;8.57;;
68888;SDS011;55930;47.412;8.790;2024-01-16T00:11:49;14.77;;;9.07;;
68888;SDS011;55930;47.412;8.790;2024-01-16T00:15:10;15.57;;;8.53;;
68888;SDS011;55930;47.412;8.790;2024-01-16T00:18:30;13.20;;;7.87;;
68888;SDS011;55930;47.412;8.790;2024-01-16T00:21:50;14.33;;;8.87;;
68888;SDS011;55930;47.412;8.790;2024-01-16T00:25:11;13.77;;;7.83;;
68888;SDS011;55930;47.412;8.790;2024-01-16T00:28:32;13.47;;;7.80;;
68888;SDS011;55930;47.412;8.790;2024-01-16T00:31:52;16.87;;;9.23;;
68888;SDS011;55930;47.412;8.790;2024-01-16T00:35:13;13.70;;;8.17;;
68888;SDS011;55930;47.412;8.790;2024-01-16T00:38:33;12.83;;;7.97;;
68888;SDS011;55930;47.412;8.790;2024-01-16T00:41:54;18.13;;;8.17;;
68888;SDS011;55930;47.412;8.790;2024-01-16T00:45:14;14.20;;;8.60;;
68888;SDS011;55930;47.412;8.790;2024-01-16T00:48:34;14.53;;;8.17;;
68888;SDS011;55930;47.412;8.790;2024-01-16T00:51:55;14.20;;;8.83;;
68888;SDS011;55930;47.412;8.790;2024-01-16T00:55:18;10.90;;;6.20;;
68888;SDS011;55930;47.412;8.790;2024-01-16T00:58:38;13.60;;;7.50;;
68888;SDS011;55930;47.412;8.790;2024-01-16T01:02:01;15.35;;;8.00;;
68888;SDS011;55930;47.412;8.790;2024-01-16T01:05:21;12.30;;;8.00;;
68888;SDS011;55930;47.412;8.790;2024-01-16T01:08:45;12.60;;;7.80;;
68888;SDS011;55930;47.412;8.790;2024-01-16T01:12:05;13.17;;;7.83;;
68888;SDS011;55930;47.412;8.790;2024-01-16T01:15:26;15.43;;;9.30;;
68888;SDS011;55930;47.412;8.790;2024-01-16T01:18:47;14.50;;;8.10;;
68888;SDS011;55930;47.412;8.790;2024-01-16T01:22:10;11.97;;;7.53;;
68888;SDS011;55930;47.412;8.790;2024-01-16T01:25:30;11.90;;;7.90;;
68888;SDS011;55930;47.412;8.790;2024-01-16T01:28:51;13.27;;;7.23;;
68888;SDS011;55930;47.412;8.790;2024-01-16T01:32:12;11.50;;;7.43;;
68888;SDS011;55930;47.412;8.790;2024-01-16T01:35:33;11.07;;;5.63;;
68888;SDS011;55930;47.412;8.790;2024-01-16T01:38:53;11.37;;;6.73;;
68888;SDS011;55930;47.412;8.790;2024-01-16T01:42:14;15.03;;;7.80;;
68888;SDS011;55930;47.412;8.790;2024-01-16T01:45:35;13.40;;;6.70;;
68888;SDS011;55930;47.412;8.790;2024-01-16T01:48:55;11.07;;;6.53;;
68888;SDS011;55930;47.412;8.790;2024-01-16T01:52:16;12.80;;;7.10;;
68888;SDS011;55930;47.412;8.790;2024-01-16T01:55:37;12.95;;;6.57;;
68888;SDS011;55930;47.412;8.790;2024-01-16T01:58:57;12.30;;;7.03;;
68888;SDS011;55930;47.412;8.790;2024-01-16T02:02:21;11.90;;;6.78;;
68888;SDS011;55930;47.412;8.790;2024-01-16T02:05:42;13.52;;;7.18;;
68888;SDS011;55930;47.412;8.790;2024-01-16T02:09:03;9.32;;;6.20;;
68888;SDS011;55930;47.412;8.790;2024-01-16T02:12:27;11.63;;;6.55;;
68888;SDS011;55930;47.412;8.790;2024-01-16T02:15:47;13.27;;;6.43;;
68888;SDS011;55930;47.412;8.790;2024-01-16T02:19:07;10.27;;;6.13;;
68888;SDS011;55930;47.412;8.790;2024-01-16T02:22:28;12.27;;;7.03;;
68888;SDS011;55930;47.412;8.790;2024-01-16T02:25:52;9.10;;;6.10;;
68888;SDS011;55930;47.412;8.790;2024-01-16T02:29:15;11.98;;;7.10;;
68888;SDS011;55930;47.412;8.790;2024-01-16T02:32:37;8.37;;;5.70;;
68888;SDS011;55930;47.412;8.790;2024-01-16T02:39:18;12.70;;;6.53;;
68888;SDS011;55930;47.412;8.790;2024-01-16T02:42:43;10.25;;;6.22;;
68888;SDS011;55930;47.412;8.790;2024-01-16T02:46:03;8.70;;;6.28;;
68888;SDS011;55930;47.412;8.790;2024-01-16T02:49:24;11.60;;;6.03;;
68888;SDS011;55930;47.412;8.790;2024-01-16T02:52:45;9.98;;;6.50;;
68888;SDS011;55930;47.412;8.790;2024-01-16T02:56:07;12.67;;;6.57;;
68888;SDS011;55930;47.412;8.790;2024-01-16T02:59:28;11.38;;;6.40;;
68888;SDS011;55930;47.412;8.790;2024-01-16T03:02:50;11.48;;;7.00;;
68888;SDS011;55930;47.412;8.790;2024-01-16T03:06:20;9.90;;;6.00;;
68888;SDS011;55930;47.412;8.790;2024-01-16T03:09:42;11.23;;;6.50;;
68888;SDS011;55930;47.412;8.790;2024-01-16T03:13:02;10.97;;;6.33;;
68888;SDS011;55930;47.412;8.790;2024-01-16T03:16:22;12.00;;;6.40;;
68888;SDS011;55930;47.412;8.790;2024-01-16T03:19:43;12.37;;;6.47;;
68888;SDS011;55930;47.412;8.790;2024-01-16T03:23:03;11.77;;;7.03;;
68888;SDS011;55930;47.412;8.790;2024-01-16T03:26:24;13.57;;;7.23;;
68888;SDS011;55930;47.412;8.790;2024-01-16T03:29:44;13.40;;;6.83;;
68888;SDS011;55930;47.412;8.790;2024-01-16T03:33:05;12.10;;;7.07;;
68888;SDS011;55930;47.412;8.790;2024-01-16T03:36:26;10.20;;;5.83;;
68888;SDS011;55930;47.412;8.790;2024-01-16T03:39:46;9.77;;;6.57;;
68888;SDS011;55930;47.412;8.790;2024-01-16T03:43:09;11.97;;;6.30;;
68888;SDS011;55930;47.412;8.790;2024-01-16T03:46:29;10.88;;;6.65;;
68888;SDS011;55930;47.412;8.790;2024-01-16T03:49:50;11.60;;;6.83;;
68888;SDS011;55930;47.412;8.790;2024-01-16T03:53:12;12.40;;;6.25;;
68888;SDS011;55930;47.412;8.790;2024-01-16T03:56:32;10.47;;;6.43;;
68888;SDS011;55930;47.412;8.790;2024-01-16T03:59:53;15.00;;;7.93;;
68888;SDS011;55930;47.412;8.790;2024-01-16T04:03:13;11.70;;;6.67;;
68888;SDS011;55930;47.412;8.790;2024-01-16T04:06:33;11.67;;;7.20;;
68888;SDS011;55930;47.412;8.790;2024-01-16T04:09:54;10.57;;;6.80;;
68888;SDS011;55930;47.412;8.790;2024-01-16T04:13:14;10.97;;;6.20;;
68888;SDS011;55930;47.412;8.790;2024-01-16T04:16:38;10.27;;;6.32;;
68888;SDS011;55930;47.412;8.790;2024-01-16T04:19:58;10.93;;;6.23;;
68888;SDS011;55930;47.412;8.790;2024-01-16T04:23:18;11.57;;;5.70;;
68888;SDS011;55930;47.412;8.790;2024-01-16T04:26:39;10.65;;;6.40;;
68888;SDS011;55930;47.412;8.790;2024-01-16T04:30:00;10.00;;;7.40;;
68888;SDS011;55930;47.412;8.790;2024-01-16T04:33:20;9.97;;;5.73;;
68888;SDS011;55930;47.412;8.790;2024-01-16T04:36:43;10.43;;;5.40;;
68888;SDS011;55930;47.412;8.790;2024-01-16T04:40:03;8.80;;;5.77;;
68888;SDS011;55930;47.412;8.790;2024-01-16T04:43:25;10.88;;;5.65;;
68888;SDS011;55930;47.412;8.790;2024-01-16T04:46:45;9.83;;;6.23;;
68888;SDS011;55930;47.412;8.790;2024-01-16T04:50:06;8.73;;;5.63;;
68888;SDS011;55930;47.412;8.790;2024-01-16T04:53:30;10.95;;;5.82;;
68888;SDS011;55930;47.412;8.790;2024-01-16T04:56:50;13.73;;;7.57;;
68888;SDS011;55930;47.412;8.790;2024-01-16T05:00:11;9.73;;;5.53;;
68888;SDS011;55930;47.412;8.790;2024-01-16T05:03:34;11.23;;;5.83;;
68888;SDS011;55930;47.412;8.790;2024-01-16T05:06:54;9.55;;;5.85;;
68888;SDS011;55930;47.412;8.790;2024-01-16T05:10:15;10.53;;;6.30;;
68888;SDS011;55930;47.412;8.790;2024-01-16T05:13:35;10.67;;;6.27;;
68888;SDS011;55930;47.412;8.790;2024-01-16T05:16:55;7.60;;;5.07;;
68888;SDS011;55930;47.412;8.790;2024-01-16T05:20:16;10.93;;;6.23;;
68888;SDS011;55930;47.412;8.790;2024-01-16T05:23:36;10.10;;;5.87;;
68888;SDS011;55930;47.412;8.790;2024-01-16T05:26:57;8.37;;;5.73;;
68888;SDS011;55930;47.412;8.790;2024-01-16T05:30:17;9.80;;;6.10;;
68888;SDS011;55930;47.412;8.790;2024-01-16T05:33:38;10.37;;;5.97;;
68888;SDS011;55930;47.412;8.790;2024-01-16T05:36:58;10.17;;;6.07;;
68888;SDS011;55930;47.412;8.790;2024-01-16T05:40:18;10.73;;;5.47;;
68888;SDS011;55930;47.412;8.790;2024-01-16T05:43:39;9.13;;;5.80;;
68888;SDS011;55930;47.412;8.790;2024-01-16T05:47:01;9.73;;;5.82;;
68888;SDS011;55930;47.412;8.790;2024-01-16T05:50:25;10.27;;;5.78;;
68888;SDS011;55930;47.412;8.790;2024-01-16T05:53:46;10.13;;;6.13;;
68888;SDS011;55930;47.412;8.790;2024-01-16T05:57:06;10.73;;;6.13;;
68888;SDS011;55930;47.412;8.790;2024-01-16T06:00:26;10.87;;;6.10;;
68888;SDS011;55930;47.412;8.790;2024-01-16T06:03:47;13.33;;;6.50;;
68888;SDS011;55930;47.412;8.790;2024-01-16T06:07:08;11.07;;;6.35;;
68888;SDS011;55930;47.412;8.790;2024-01-16T06:10:29;12.07;;;7.37;;
68888;SDS011;55930;47.412;8.790;2024-01-16T06:13:49;10.60;;;6.57;;
68888;SDS011;55930;47.412;8.790;2024-01-16T06:17:09;11.23;;;6.70;;
68888;SDS011;55930;47.412;8.790;2024-01-16T06:20:30;10.13;;;6.27;;
68888;SDS011;55930;47.412;8.790;2024-01-16T06:23:50;8.67;;;5.97;;
68888;SDS011;55930;47.412;8.790;2024-01-16T06:27:11;10.50;;;6.40;;
68888;SDS011;55930;47.412;8.790;2024-01-16T06:30:34;11.00;;;7.07;;
68888;SDS011;55930;47.412;8.790;2024-01-16T06:33:54;13.43;;;7.67;;
68888;SDS011;55930;47.412;8.790;2024-01-16T06:37:14;16.23;;;6.83;;
68888;SDS011;55930;47.412;8.790;2024-01-16T06:40:35;14.07;;;6.47;;
68888;SDS011;55930;47.412;8.790;2024-01-16T06:43:55;10.87;;;7.00;;
68888;SDS011;55930;47.412;8.790;2024-01-16T06:47:15;10.47;;;7.40;;
68888;SDS011;55930;47.412;8.790;2024-01-16T06:50:36;10.87;;;6.13;;
68888;SDS011;55930;47.412;8.790;2024-01-16T06:53:56;12.63;;;7.27;;
68888;SDS011;55930;47.412;8.790;2024-01-16T06:57:16;9.67;;;6.40;;
68888;SDS011;55930;47.412;8.790;2024-01-16T07:00:37;12.73;;;6.67;;
68888;SDS011;55930;47.412;8.790;2024-01-16T07:03:57;14.53;;;7.70;;
68888;SDS011;55930;47.412;8.790;2024-01-16T07:07:18;12.90;;;8.60;;
68888;SDS011;55930;47.412;8.790;2024-01-16T07:10:38;13.60;;;6.80;;
68888;SDS011;55930;47.412;8.790;2024-01-16T07:13:58;11.43;;;6.27;;
68888;SDS011;55930;47.412;8.790;2024-01-16T07:17:19;11.33;;;7.20;;
68888;SDS011;55930;47.412;8.790;2024-01-16T07:20:39;11.57;;;6.77;;
68888;SDS011;55930;47.412;8.790;2024-01-16T07:24:00;12.37;;;7.37;;
68888;SDS011;55930;47.412;8.790;2024-01-16T07:27:20;11.17;;;6.53;;
68888;SDS011;55930;47.412;8.790;2024-01-16T07:30:41;14.43;;;7.50;;
68888;SDS011;55930;47.412;8.790;2024-01-16T07:34:03;13.77;;;7.53;;
68888;SDS011;55930;47.412;8.790;2024-01-16T07:37:23;10.80;;;6.88;;
68888;SDS011;55930;47.412;8.790;2024-01-16T07:40:44;11.07;;;6.23;;
68888;SDS011;55930;47.412;8.790;2024-01-16T07:44:04;11.87;;;7.20;;
68888;SDS011;55930;47.412;8.790;2024-01-16T07:47:24;13.57;;;6.80;;
68888;SDS011;55930;47.412;8.790;2024-01-16T07:50:45;11.50;;;6.40;;
68888;SDS011;55930;47.412;8.790;2024-01-16T07:54:06;11.57;;;6.67;;
68888;SDS011;55930;47.412;8.790;2024-01-16T07:57:28;14.50;;;7.40;;
68888;SDS011;55930;47.412;8.790;2024-01-16T08:00:48;12.47;;;6.43;;
68888;SDS011;55930;47.412;8.790;2024-01-16T08:04:09;10.47;;;6.47;;
68888;SDS011;55930;47.412;8.790;2024-01-16T08:07:29;10.43;;;6.40;;
68888;SDS011;55930;47.412;8.790;2024-01-16T08:10:50;12.10;;;7.23;;
68888;SDS011;55930;47.412;8.790;2024-01-16T08:14:10;11.27;;;6.70;;
68888;SDS011;55930;47.412;8.790;2024-01-16T08:17:31;13.70;;;7.20;;
68888;SDS011;55930;47.412;8.790;2024-01-16T08:20:51;11.33;;;6.10;;
68888;SDS011;55930;47.412;8.790;2024-01-16T08:24:11;13.67;;;7.43;;
68888;SDS011;55930;47.412;8.790;2024-01-16T08:27:32;11.13;;;7.37;;
68888;SDS011;55930;47.412;8.790;2024-01-16T08:30:57;14.20;;;9.77;;
68888;SDS011;55930;47.412;8.790;2024-01-16T08:34:20;17.30;;;10.35;;
68888;SDS011;55930;47.412;8.790;2024-01-16T08:37:43;30.27;;;16.63;;
68888;SDS011;55930;47.412;8.790;2024-01-16T08:41:06;34.50;;;21.52;;
68888;SDS011;55930;47.412;8.790;2024-01-16T08:44:27;34.73;;;18.77;;
68888;SDS011;55930;47.412;8.790;2024-01-16T08:47:47;65.57;;;38.00;;
68888;SDS011;55930;47.412;8.790;2024-01-16T08:51:08;54.87;;;36.50;;
68888;SDS011;55930;47.412;8.790;2024-01-16T08:54:32;54.50;;;37.60;;
68888;SDS011;55930;47.412;8.790;2024-01-16T08:57:52;48.20;;;31.80;;
68888;SDS011;55930;47.412;8.790;2024-01-16T09:01:12;28.97;;;18.63;;
68888;SDS011;55930;47.412;8.790;2024-01-16T09:04:33;25.93;;;17.63;;
68888;SDS011;55930;47.412;8.790;2024-01-16T09:07:54;24.45;;;15.52;;
68888;SDS011;55930;47.412;8.790;2024-01-16T09:11:14;22.27;;;14.63;;
68888;SDS011;55930;47.412;8.790;2024-01-16T09:14:35;17.17;;;11.40;;
68888;SDS011;55930;47.412;8.790;2024-01-16T09:17:55;16.37;;;10.33;;
68888;SDS011;55930;47.412;8.790;2024-01-16T09:21:15;13.47;;;7.93;;
68888;SDS011;55930;47.412;8.790;2024-01-16T09:24:36;15.57;;;9.73;;
68888;SDS011;55930;47.412;8.790;2024-01-16T09:27:56;12.53;;;8.90;;
68888;SDS011;55930;47.412;8.790;2024-01-16T09:31:17;15.00;;;8.93;;
68888;SDS011;55930;47.412;8.790;2024-01-16T09:34:37;16.73;;;8.90;;
68888;SDS011;55930;47.412;8.790;2024-01-16T09:37:58;15.93;;;8.67;;
68888;SDS011;55930;47.412;8.790;2024-01-16T09:41:19;14.55;;;9.70;;
68888;SDS011;55930;47.412;8.790;2024-01-16T09:44:41;15.05;;;9.55;;
68888;SDS011;55930;47.412;8.790;2024-01-16T09:48:02;13.52;;;9.02;;
68888;SDS011;55930;47.412;8.790;2024-01-16T09:51:24;14.30;;;9.10;;
68888;SDS011;55930;47.412;8.790;2024-01-16T09:54:45;15.40;;;9.27;;
68888;SDS011;55930;47.412;8.790;2024-01-16T09:58:05;15.57;;;9.53;;
68888;SDS011;55930;47.412;8.790;2024-01-16T10:01:31;16.23;;;8.88;;
68888;SDS011;55930;47.412;8.790;2024-01-16T10:04:53;15.00;;;9.38;;
68888;SDS011;55930;47.412;8.790;2024-01-16T10:08:13;12.57;;;8.80;;
68888;SDS011;55930;47.412;8.790;2024-01-16T10:11:34;12.43;;;8.80;;
68888;SDS011;55930;47.412;8.790;2024-01-16T10:14:55;16.83;;;8.55;;
68888;SDS011;55930;47.412;8.790;2024-01-16T10:18:22;13.52;;;8.25;;
68888;SDS011;55930;47.412;8.790;2024-01-16T10:21:47;13.90;;;9.10;;
68888;SDS011;55930;47.412;8.790;2024-01-16T10:25:10;15.20;;;9.17;;
68888;SDS011;55930;47.412;8.790;2024-01-16T10:28:32;13.30;;;9.25;;
68888;SDS011;55930;47.412;8.790;2024-01-16T10:31:54;14.15;;;9.38;;
68888;SDS011;55930;47.412;8.790;2024-01-16T10:35:14;14.40;;;9.17;;
68888;SDS011;55930;47.412;8.790;2024-01-16T10:38:38;15.43;;;9.70;;
68888;SDS011;55930;47.412;8.790;2024-01-16T10:42:00;15.13;;;9.75;;
68888;SDS011;55930;47.412;8.790;2024-01-16T10:45:22;15.77;;;9.82;;
68888;SDS011;55930;47.412;8.790;2024-01-16T10:48:44;13.60;;;10.00;;
68888;SDS011;55930;47.412;8.790;2024-01-16T10:52:18;20.92;;;13.18;;
68888;SDS011;55930;47.412;8.790;2024-01-16T10:55:43;13.23;;;8.43;;
68888;SDS011;55930;47.412;8.790;2024-01-16T11:06:22;15.75;;;9.90;;
68888;SDS011;55930;47.412;8.790;2024-01-16T11:09:43;13.60;;;9.02;;
68888;SDS011;55930;47.412;8.790;2024-01-16T11:13:05;12.82;;;9.15;;
68888;SDS011;55930;47.412;8.790;2024-01-16T11:16:26;15.52;;;9.23;;
68888;SDS011;55930;47.412;8.790;2024-01-16T11:19:48;12.70;;;9.02;;
68888;SDS011;55930;47.412;8.790;2024-01-16T11:23:10;15.68;;;8.32;;
68888;SDS011;55930;47.412;8.790;2024-01-16T11:26:33;14.38;;;9.10;;
68888;SDS011;55930;47.412;8.790;2024-01-16T11:29:56;11.23;;;8.00;;
68888;SDS011;55930;47.412;8.790;2024-01-16T11:36:55;13.43;;;7.43;;
68888;SDS011;55930;47.412;8.790;2024-01-16T11:43:46;9.88;;;7.43;;
68888;SDS011;55930;47.412;8.790;2024-01-16T11:47:06;11.33;;;8.17;;
68888;SDS011;55930;47.412;8.790;2024-01-16T11:50:27;13.40;;;7.35;;
68888;SDS011;55930;47.412;8.790;2024-01-16T11:53:51;9.85;;;7.22;;
68888;SDS011;55930;47.412;8.790;2024-01-16T12:01:05;10.52;;;6.85;;
68888;SDS011;55930;47.412;8.790;2024-01-16T12:04:26;9.82;;;7.57;;
68888;SDS011;55930;47.412;8.790;2024-01-16T12:11:12;8.90;;;6.82;;
68888;SDS011;55930;47.412;8.790;2024-01-16T12:14:46;8.43;;;6.13;;
68888;SDS011;55930;47.412;8.790;2024-01-16T12:18:18;10.02;;;6.35;;
68888;SDS011;55930;47.412;8.790;2024-01-16T12:21:39;9.10;;;6.53;;
68888;SDS011;55930;47.412;8.790;2024-01-16T12:25:00;10.32;;;6.60;;
68888;SDS011;55930;47.412;8.790;2024-01-16T12:28:24;8.45;;;6.10;;
68888;SDS011;55930;47.412;8.790;2024-01-16T12:31:44;8.47;;;5.97;;
68888;SDS011;55930;47.412;8.790;2024-01-16T12:35:05;7.17;;;5.57;;
68888;SDS011;55930;47.412;8.790;2024-01-16T12:38:25;8.77;;;5.23;;
68888;SDS011;55930;47.412;8.790;2024-01-16T12:41:46;7.90;;;5.27;;
68888;SDS011;55930;47.412;8.790;2024-01-16T12:45:09;6.27;;;5.10;;
68888;SDS011;55930;47.412;8.790;2024-01-16T12:48:30;8.68;;;6.10;;
68888;SDS011;55930;47.412;8.790;2024-01-16T12:51:50;8.33;;;5.80;;
68888;SDS011;55930;47.412;8.790;2024-01-16T12:55:13;7.38;;;5.88;;
68888;SDS011;55930;47.412;8.790;2024-01-16T12:58:34;8.80;;;5.90;;
68888;SDS011;55930;47.412;8.790;2024-01-16T13:01:56;9.02;;;5.57;;
68888;SDS011;55930;47.412;8.790;2024-01-16T13:05:16;8.90;;;5.70;;
68888;SDS011;55930;47.412;8.790;2024-01-16T13:08:39;10.50;;;6.35;;
68888;SDS011;55930;47.412;8.790;2024-01-16T13:11:59;9.93;;;6.00;;
68888;SDS011;55930;47.412;8.790;2024-01-16T13:15:20;8.43;;;5.93;;
68888;SDS011;55930;47.412;8.790;2024-01-16T13:18:40;8.70;;;6.00;;
68888;SDS011;55930;47.412;8.790;2024-01-16T13:22:01;9.50;;;6.87;;
68888;SDS011;55930;47.412;8.790;2024-01-16T13:25:21;6.83;;;5.37;;
68888;SDS011;55930;47.412;8.790;2024-01-16T13:28:41;10.13;;;6.63;;
68888;SDS011;55930;47.412;8.790;2024-01-16T13:32:03;8.63;;;5.78;;
68888;SDS011;55930;47.412;8.790;2024-01-16T13:35:24;7.75;;;5.50;;
68888;SDS011;55930;47.412;8.790;2024-01-16T13:38:45;7.73;;;5.43;;
68888;SDS011;55930;47.412;8.790;2024-01-16T13:42:07;7.22;;;5.20;;
68888;SDS011;55930;47.412;8.790;2024-01-16T13:45:28;11.10;;;5.37;;
68888;SDS011;55930;47.412;8.790;2024-01-16T13:48:48;6.60;;;5.27;;
68888;SDS011;55930;47.412;8.790;2024-01-16T13:52:09;7.03;;;5.20;;
68888;SDS011;55930;47.412;8.790;2024-01-16T13:55:29;6.17;;;5.20;;
68888;SDS011;55930;47.412;8.790;2024-01-16T13:58:51;6.63;;;5.13;;
68888;SDS011;55930;47.412;8.790;2024-01-16T14:02:12;8.20;;;4.80;;
68888;SDS011;55930;47.412;8.790;2024-01-16T14:05:32;6.80;;;5.07;;
68888;SDS011;55930;47.412;8.790;2024-01-16T14:08:53;9.13;;;5.20;;
68888;SDS011;55930;47.412;8.790;2024-01-16T14:12:13;8.73;;;5.43;;
68888;SDS011;55930;47.412;8.790;2024-01-16T14:15:34;6.50;;;4.43;;
68888;SDS011;55930;47.412;8.790;2024-01-16T14:18:54;6.60;;;4.90;;
68888;SDS011;55930;47.412;8.790;2024-01-16T14:22:14;5.97;;;4.63;;
68888;SDS011;55930;47.412;8.790;2024-01-16T14:25:35;6.73;;;4.73;;
68888;SDS011;55930;47.412;8.790;2024-01-16T14:28:56;5.93;;;4.50;;
68888;SDS011;55930;47.412;8.790;2024-01-16T14:32:16;7.07;;;5.07;;
68888;SDS011;55930;47.412;8.790;2024-01-16T14:35:37;6.30;;;4.87;;
68888;SDS011;55930;47.412;8.790;2024-01-16T14:38:58;6.72;;;4.68;;
68888;SDS011;55930;47.412;8.790;2024-01-16T14:42:18;7.53;;;4.63;;
68888;SDS011;55930;47.412;8.790;2024-01-16T14:45:38;6.70;;;4.97;;
68888;SDS011;55930;47.412;8.790;2024-01-16T14:48:59;6.03;;;4.47;;
68888;SDS011;55930;47.412;8.790;2024-01-16T14:52:19;5.97;;;4.27;;
68888;SDS011;55930;47.412;8.790;2024-01-16T14:55:39;8.00;;;4.63;;
68888;SDS011;55930;47.412;8.790;2024-01-16T14:59:00;5.40;;;4.17;;
68888;SDS011;55930;47.412;8.790;2024-01-16T15:02:20;7.03;;;4.63;;
68888;SDS011;55930;47.412;8.790;2024-01-16T15:05:41;12.90;;;5.03;;
68888;SDS011;55930;47.412;8.790;2024-01-16T15:09:09;7.78;;;5.35;;
68888;SDS011;55930;47.412;8.790;2024-01-16T15:12:32;7.57;;;5.05;;
68888;SDS011;55930;47.412;8.790;2024-01-16T15:15:55;7.05;;;4.75;;
68888;SDS011;55930;47.412;8.790;2024-01-16T15:19:16;5.50;;;4.47;;
68888;SDS011;55930;47.412;8.790;2024-01-16T15:26:13;6.30;;;5.28;;
68888;SDS011;55930;47.412;8.790;2024-01-16T15:29:39;11.23;;;6.93;;
68888;SDS011;55930;47.412;8.790;2024-01-16T15:33:02;10.35;;;7.32;;
68888;SDS011;55930;47.412;8.790;2024-01-16T15:36:25;10.75;;;6.13;;
68888;SDS011;55930;47.412;8.790;2024-01-16T15:39:46;9.20;;;5.43;;
68888;SDS011;55930;47.412;8.790;2024-01-16T15:43:06;7.90;;;5.20;;
68888;SDS011;55930;47.412;8.790;2024-01-16T15:46:26;7.37;;;5.50;;
68888;SDS011;55930;47.412;8.790;2024-01-16T15:49:47;6.77;;;5.33;;
68888;SDS011;55930;47.412;8.790;2024-01-16T15:53:13;8.13;;;5.75;;
68888;SDS011;55930;47.412;8.790;2024-01-16T15:56:35;8.93;;;5.47;;
68888;SDS011;55930;47.412;8.790;2024-01-16T15:59:55;6.80;;;5.37;;
68888;SDS011;55930;47.412;8.790;2024-01-16T16:03:19;9.60;;;5.50;;
68888;SDS011;55930;47.412;8.790;2024-01-16T16:06:41;9.70;;;5.15;;
68888;SDS011;55930;47.412;8.790;2024-01-16T16:10:01;8.50;;;5.43;;
68888;SDS011;55930;47.412;8.790;2024-01-16T16:13:21;10.20;;;6.53;;
68888;SDS011;55930;47.412;8.790;2024-01-16T16:16:42;8.67;;;6.07;;
68888;SDS011;55930;47.412;8.790;2024-01-16T16:20:03;10.55;;;6.82;;
68888;SDS011;55930;47.412;8.790;2024-01-16T16:23:24;14.77;;;8.75;;
68888;SDS011;55930;47.412;8.790;2024-01-16T16:26:44;13.23;;;7.77;;
68888;SDS011;55930;47.412;8.790;2024-01-16T16:30:08;12.43;;;6.90;;
68888;SDS011;55930;47.412;8.790;2024-01-16T16:33:28;8.85;;;6.50;;
68888;SDS011;55930;47.412;8.790;2024-01-16T16:36:49;9.97;;;5.90;;
68888;SDS011;55930;47.412;8.790;2024-01-16T16:40:09;10.87;;;6.10;;
68888;SDS011;55930;47.412;8.790;2024-01-16T16:43:32;8.45;;;5.93;;
68888;SDS011;55930;47.412;8.790;2024-01-16T16:46:52;9.43;;;5.97;;
68888;SDS011;55930;47.412;8.790;2024-01-16T16:50:12;10.83;;;6.87;;
68888;SDS011;55930;47.412;8.790;2024-01-16T16:53:34;9.48;;;6.22;;
68888;SDS011;55930;47.412;8.790;2024-01-16T16:56:55;10.27;;;6.90;;
68888;SDS011;55930;47.412;8.790;2024-01-16T17:00:16;12.27;;;6.13;;
68888;SDS011;55930;47.412;8.790;2024-01-16T17:03:37;9.23;;;6.50;;
68888;SDS011;55930;47.412;8.790;2024-01-16T17:07:01;10.07;;;6.75;;
68888;SDS011;55930;47.412;8.790;2024-01-16T17:10:21;9.97;;;7.00;;
68888;SDS011;55930;47.412;8.790;2024-01-16T17:13:42;14.50;;;6.57;;
68888;SDS011;55930;47.412;8.790;2024-01-16T17:17:08;8.20;;;5.70;;
68888;SDS011;55930;47.412;8.790;2024-01-16T17:20:31;15.88;;;8.95;;
68888;SDS011;55930;47.412;8.790;2024-01-16T17:23:53;31.10;;;16.10;;
68888;SDS011;55930;47.412;8.790;2024-01-16T17:27:16;28.07;;;15.20;;
68888;SDS011;55930;47.412;8.790;2024-01-16T17:30:37;40.15;;;19.90;;
68888;SDS011;55930;47.412;8.790;2024-01-16T17:33:58;44.75;;;21.45;;
68888;SDS011;55930;47.412;8.790;2024-01-16T17:37:19;32.20;;;17.30;;
68888;SDS011;55930;47.412;8.790;2024-01-16T17:40:39;18.30;;;10.33;;
68888;SDS011;55930;47.412;8.790;2024-01-16T17:44:00;16.60;;;9.43;;
68888;SDS011;55930;47.412;8.790;2024-01-16T17:47:20;27.50;;;15.17;;
68888;SDS011;55930;47.412;8.790;2024-01-16T17:50:43;32.77;;;19.53;;
68888;SDS011;55930;47.412;8.790;2024-01-16T17:54:04;41.95;;;22.95;;
68888;SDS011;55930;47.412;8.790;2024-01-16T17:57:25;54.43;;;32.27;;
68888;SDS011;55930;47.412;8.790;2024-01-16T18:00:47;47.95;;;28.05;;
68888;SDS011;55930;47.412;8.790;2024-01-16T18:04:07;42.83;;;27.70;;
68888;SDS011;55930;47.412;8.790;2024-01-16T18:07:28;39.40;;;27.80;;
68888;SDS011;55930;47.412;8.790;2024-01-16T18:10:48;30.63;;;20.83;;
68888;SDS011;55930;47.412;8.790;2024-01-16T18:14:13;31.83;;;24.15;;
68888;SDS011;55930;47.412;8.790;2024-01-16T18:17:33;37.40;;;27.60;;
68888;SDS011;55930;47.412;8.790;2024-01-16T18:20:54;34.50;;;24.80;;
68888;SDS011;55930;47.412;8.790;2024-01-16T18:24:15;30.30;;;20.83;;
68888;SDS011;55930;47.412;8.790;2024-01-16T18:27:36;32.93;;;23.00;;
68888;SDS011;55930;47.412;8.790;2024-01-16T18:30:57;23.03;;;17.83;;
68888;SDS011;55930;47.412;8.790;2024-01-16T18:34:17;27.30;;;17.40;;
68888;SDS011;55930;47.412;8.790;2024-01-16T18:37:40;24.42;;;16.27;;
68888;SDS011;55930;47.412;8.790;2024-01-16T18:41:00;18.07;;;12.30;;
68888;SDS011;55930;47.412;8.790;2024-01-16T18:44:21;17.03;;;11.10;;
68888;SDS011;55930;47.412;8.790;2024-01-16T18:47:41;16.53;;;10.33;;
68888;SDS011;55930;47.412;8.790;2024-01-16T18:51:03;15.35;;;11.35;;
68888;SDS011;55930;47.412;8.790;2024-01-16T18:54:25;16.73;;;11.47;;
68888;SDS011;55930;47.412;8.790;2024-01-16T18:57:47;17.38;;;10.95;;
68888;SDS011;55930;47.412;8.790;2024-01-16T19:01:08;16.73;;;10.50;;
68888;SDS011;55930;47.412;8.790;2024-01-16T19:04:28;13.63;;;9.83;;
68888;SDS011;55930;47.412;8.790;2024-01-16T19:07:50;17.80;;;11.00;;
68888;SDS011;55930;47.412;8.790;2024-01-16T19:11:10;16.67;;;9.70;;
68888;SDS011;55930;47.412;8.790;2024-01-16T19:14:31;15.33;;;10.20;;
68888;SDS011;55930;47.412;8.790;2024-01-16T19:17:52;14.55;;;9.82;;
68888;SDS011;55930;47.412;8.790;2024-01-16T19:21:12;12.27;;;8.77;;
68888;SDS011;55930;47.412;8.790;2024-01-16T19:24:33;12.73;;;8.67;;
68888;SDS011;55930;47.412;8.790;2024-01-16T19:27:55;12.60;;;8.93;;
68888;SDS011;55930;47.412;8.790;2024-01-16T19:31:16;10.87;;;7.03;;
68888;SDS011;55930;47.412;8.790;2024-01-16T19:34:36;11.23;;;6.80;;
68888;SDS011;55930;47.412;8.790;2024-01-16T19:37:56;9.90;;;6.63;;
68888;SDS011;55930;47.412;8.790;2024-01-16T19:41:17;8.23;;;5.77;;
68888;SDS011;55930;47.412;8.790;2024-01-16T19:44:37;12.87;;;8.70;;
68888;SDS011;55930;47.412;8.790;2024-01-16T19:47:58;14.80;;;9.67;;
68888;SDS011;55930;47.412;8.790;2024-01-16T19:51:18;15.83;;;9.37;;
68888;SDS011;55930;47.412;8.790;2024-01-16T19:54:39;12.63;;;9.20;;
68888;SDS011;55930;47.412;8.790;2024-01-16T19:58:00;13.63;;;8.63;;
68888;SDS011;55930;47.412;8.790;2024-01-16T20:04:50;14.30;;;10.43;;
68888;SDS011;55930;47.412;8.790;2024-01-16T20:08:12;19.63;;;13.10;;
68888;SDS011;55930;47.412;8.790;2024-01-16T20:11:33;30.93;;;18.53;;
68888;SDS011;55930;47.412;8.790;2024-01-16T20:14:53;31.67;;;20.53;;
68888;SDS011;55930;47.412;8.790;2024-01-16T20:18:13;26.47;;;16.47;;
68888;SDS011;55930;47.412;8.790;2024-01-16T20:21:34;23.37;;;14.23;;
68888;SDS011;55930;47.412;8.790;2024-01-16T20:24:55;21.38;;;13.13;;
68888;SDS011;55930;47.412;8.790;2024-01-16T20:28:18;13.52;;;8.20;;